createdAt,value
2018-04-08T00:01:47.129Z,8.57
2018-04-08T00:04:50.158Z,10.13
2018-04-08T00:07:52.684Z,8.10
2018-04-08T00:10:55.163Z,10.50
2018-04-08T00:13:57.736Z,7.80
2018-04-08T00:17:00.267Z,7.07
2018-04-08T00:20:02.790Z,11.93
2018-04-08T00:23:05.318Z,9.10
2018-04-08T00:26:07.836Z,6.87
2018-04-08T00:29:10.368Z,8.33
2018-04-08T00:32:12.855Z,9.87
2018-04-08T00:35:15.362Z,8.10
2018-04-08T00:38:17.844Z,11.67
2018-04-08T00:41:20.329Z,10.90
2018-04-08T00:44:22.812Z,10.00
2018-04-08T00:47:25.401Z,8.03
2018-04-08T00:50:27.919Z,9.77
2018-04-08T00:53:30.404Z,10.03
2018-04-08T00:56:32.878Z,12.20
2018-04-08T00:59:35.466Z,10.30
2018-04-08T01:02:37.934Z,12.10
2018-04-08T01:05:40.446Z,7.90
2018-04-08T01:08:42.950Z,9.30
2018-04-08T01:11:45.470Z,9.53
2018-04-08T01:14:47.946Z,8.60
2018-04-08T01:17:50.392Z,8.90
2018-04-08T01:20:52.888Z,10.77
2018-04-08T01:23:55.370Z,8.93
2018-04-08T01:26:57.852Z,11.70
2018-04-08T01:30:00.349Z,10.80
2018-04-08T01:33:02.846Z,10.23
2018-04-08T01:36:05.309Z,10.60
2018-04-08T01:39:07.856Z,10.20
2018-04-08T01:42:10.385Z,9.73
2018-04-08T01:45:12.882Z,9.33
2018-04-08T01:48:15.356Z,8.97
2018-04-08T01:51:17.809Z,9.20
2018-04-08T01:54:20.364Z,8.20
2018-04-08T01:57:22.851Z,11.50
2018-04-08T02:00:25.366Z,10.00
2018-04-08T02:03:27.826Z,9.60
2018-04-08T02:06:30.325Z,10.13
2018-04-08T02:09:32.839Z,10.37
2018-04-08T02:12:35.331Z,13.00
2018-04-08T02:15:37.895Z,10.97
2018-04-08T02:18:40.362Z,10.93
2018-04-08T02:21:42.900Z,11.50
2018-04-08T02:24:45.380Z,9.20
2018-04-08T02:27:47.902Z,10.87
2018-04-08T02:30:50.402Z,12.13
2018-04-08T02:33:52.937Z,14.47
2018-04-08T02:36:55.463Z,10.10
2018-04-08T02:39:57.926Z,12.87
2018-04-08T02:43:00.457Z,9.20
2018-04-08T02:46:03.036Z,11.50
2018-04-08T02:49:05.549Z,9.93
2018-04-08T02:52:08.037Z,11.83
2018-04-08T02:55:10.525Z,11.60
2018-04-08T02:58:13.009Z,12.10
2018-04-08T03:01:15.515Z,14.70
2018-04-08T03:04:18.082Z,21.40
2018-04-08T03:07:20.643Z,13.57
2018-04-08T03:10:23.216Z,12.27
2018-04-08T03:13:25.882Z,13.20
2018-04-08T03:16:28.442Z,11.00
2018-04-08T03:19:31.003Z,11.17
2018-04-08T03:22:33.494Z,13.23
2018-04-08T03:25:36.067Z,11.90
2018-04-08T03:28:38.552Z,15.83
2018-04-08T03:31:41.100Z,11.03
2018-04-08T03:34:43.556Z,11.60
2018-04-08T03:37:46.037Z,13.07
2018-04-08T03:40:48.493Z,11.90
2018-04-08T03:43:51.072Z,12.93
2018-04-08T03:46:53.666Z,12.30
2018-04-08T03:49:56.180Z,15.60
2018-04-08T03:52:58.687Z,15.87
2018-04-08T03:56:01.199Z,16.60
2018-04-08T03:59:03.692Z,12.73
2018-04-08T04:02:06.164Z,11.27
2018-04-08T04:05:08.674Z,14.27
2018-04-08T04:08:11.162Z,15.60
2018-04-08T04:11:13.755Z,17.00
2018-04-08T04:14:16.257Z,15.80
2018-04-08T04:17:18.844Z,12.40
2018-04-08T04:24:28.687Z,14.87
2018-04-08T04:27:31.153Z,12.60
2018-04-08T04:30:33.642Z,14.93
2018-04-08T04:33:36.111Z,11.77
2018-04-08T04:36:38.635Z,13.53
2018-04-08T04:39:41.139Z,11.50
2018-04-08T04:42:43.644Z,13.70
2018-04-08T04:45:46.207Z,14.87
2018-04-08T04:48:48.682Z,13.23
2018-04-08T04:51:51.159Z,12.70
2018-04-08T04:54:53.695Z,15.10
2018-04-08T04:57:56.199Z,14.63
2018-04-08T05:00:59.628Z,12.47
2018-04-08T05:04:02.106Z,15.00
2018-04-08T05:07:04.565Z,15.23
2018-04-08T05:10:07.123Z,13.77
2018-04-08T05:13:09.682Z,14.47
2018-04-08T05:16:12.144Z,13.60
2018-04-08T05:19:14.676Z,11.20
2018-04-08T05:22:17.138Z,14.77
2018-04-08T05:25:19.617Z,11.93
2018-04-08T05:28:22.158Z,14.60
2018-04-08T05:31:25.554Z,14.70
2018-04-08T05:34:28.043Z,15.37
2018-04-08T05:37:31.470Z,15.30
2018-04-08T05:40:33.968Z,14.73
2018-04-08T05:43:36.465Z,11.70
2018-04-08T05:46:39.048Z,12.53
2018-04-08T05:49:42.781Z,11.80
2018-04-08T05:52:45.303Z,12.30
2018-04-08T05:55:48.989Z,14.00
2018-04-08T05:58:51.487Z,12.03
2018-04-08T06:01:54.017Z,12.10
2018-04-08T06:04:56.511Z,13.60
2018-04-08T06:07:58.964Z,12.73
2018-04-08T06:11:01.465Z,13.33
2018-04-08T06:14:03.955Z,24.77
2018-04-08T06:17:06.413Z,14.13
2018-04-08T06:20:08.954Z,13.27
2018-04-08T06:23:11.447Z,14.90
2018-04-08T06:26:13.893Z,12.37
2018-04-08T06:29:16.436Z,16.90
2018-04-08T06:32:18.892Z,12.37
2018-04-08T06:35:22.194Z,11.70
2018-04-08T06:38:24.651Z,11.57
2018-04-08T06:41:27.131Z,14.23
2018-04-08T06:44:29.637Z,12.30
2018-04-08T06:47:32.199Z,15.33
2018-04-08T06:50:34.709Z,13.13
2018-04-08T06:53:37.238Z,14.47
2018-04-08T06:56:39.699Z,12.43
2018-04-08T06:59:42.249Z,15.30
2018-04-08T07:02:44.789Z,13.20
2018-04-08T07:05:47.373Z,14.23
2018-04-08T07:08:49.949Z,14.17
2018-04-08T07:11:52.492Z,12.23
2018-04-08T07:14:55.002Z,12.70
2018-04-08T07:17:57.523Z,14.63
2018-04-08T07:21:00.063Z,12.93
2018-04-08T07:24:02.835Z,13.70
2018-04-08T07:27:05.313Z,14.60
2018-04-08T07:30:08.046Z,13.10
2018-04-08T07:33:10.645Z,14.70
2018-04-08T07:36:13.139Z,15.03
2018-04-08T07:39:15.611Z,13.57
2018-04-08T07:42:18.113Z,13.23
2018-04-08T07:45:20.596Z,17.00
2018-04-08T07:48:23.160Z,12.97
2018-04-08T07:51:25.614Z,12.60
2018-04-08T07:54:28.110Z,14.70
2018-04-08T07:57:30.570Z,15.33
2018-04-08T08:00:33.101Z,12.67
2018-04-08T08:03:35.569Z,15.47
2018-04-08T08:06:38.086Z,12.80
2018-04-08T08:09:40.590Z,15.30
2018-04-08T08:12:43.248Z,13.13
2018-04-08T08:15:45.691Z,12.97
2018-04-08T08:18:48.216Z,15.13
2018-04-08T08:21:50.717Z,12.50
2018-04-08T08:24:53.207Z,14.47
2018-04-08T08:27:55.755Z,13.30
2018-04-08T08:30:58.304Z,18.67
2018-04-08T08:34:00.834Z,18.57
2018-04-08T08:37:03.344Z,18.20
2018-04-08T08:40:05.860Z,16.40
2018-04-08T08:43:08.340Z,13.90
2018-04-08T08:46:10.864Z,15.17
2018-04-08T08:49:13.366Z,15.10
2018-04-08T08:52:15.975Z,15.80
2018-04-08T08:55:18.466Z,14.73
2018-04-08T08:58:21.179Z,16.60
2018-04-08T09:01:23.690Z,14.40
2018-04-08T09:04:26.452Z,14.57
2018-04-08T09:07:29.045Z,18.63
2018-04-08T09:10:31.634Z,14.60
2018-04-08T09:13:34.301Z,15.40
2018-04-08T09:16:36.793Z,15.13
2018-04-08T09:19:48.697Z,15.30
2018-04-08T09:22:54.671Z,16.90
2018-04-08T09:25:59.636Z,18.47
2018-04-08T09:29:02.221Z,14.33
2018-04-08T09:32:04.720Z,14.13
2018-04-08T09:35:07.220Z,17.67
2018-04-08T09:38:09.761Z,15.23
2018-04-08T09:41:12.262Z,15.00
2018-04-08T09:44:14.816Z,13.73
2018-04-08T09:47:17.330Z,13.07
2018-04-08T09:50:19.987Z,13.70
2018-04-08T09:53:22.460Z,15.47
2018-04-08T09:56:24.951Z,17.70
2018-04-08T09:59:27.661Z,13.23
2018-04-08T10:02:36.798Z,17.03
2018-04-08T10:05:39.370Z,12.40
2018-04-08T10:08:41.921Z,13.90
2018-04-08T10:11:44.407Z,12.60
2018-04-08T10:14:46.886Z,12.67
2018-04-08T10:17:49.412Z,14.13
2018-04-08T10:20:51.910Z,16.60
2018-04-08T10:23:54.392Z,12.97
2018-04-08T10:26:56.983Z,16.00
2018-04-08T10:29:59.492Z,13.83
2018-04-08T10:33:01.981Z,14.37
2018-04-08T10:36:04.533Z,19.80
2018-04-08T10:39:07.038Z,15.77
2018-04-08T10:42:10.318Z,17.03
2018-04-08T10:45:12.985Z,16.40
2018-04-08T10:48:15.544Z,17.83
2018-04-08T10:51:18.816Z,18.50
2018-04-08T10:54:21.347Z,16.57
2018-04-08T10:57:23.940Z,19.73
2018-04-08T11:00:26.412Z,17.83
2018-04-08T11:03:28.933Z,17.40
2018-04-08T11:06:32.113Z,16.30
2018-04-08T11:09:34.563Z,16.50
2018-04-08T11:12:37.620Z,14.53
2018-04-08T11:15:40.081Z,15.43
2018-04-08T11:18:43.091Z,17.03
2018-04-08T11:21:45.780Z,18.67
2018-04-08T11:24:48.344Z,16.33
2018-04-08T11:27:50.909Z,16.40
2018-04-08T11:30:53.446Z,11.07
2018-04-08T11:33:55.942Z,14.10
2018-04-08T11:36:58.452Z,16.97
2018-04-08T11:40:00.903Z,12.17
2018-04-08T11:43:03.430Z,12.10
2018-04-08T11:46:05.926Z,12.10
2018-04-08T11:49:08.428Z,17.87
2018-04-08T11:52:10.968Z,14.10
2018-04-08T11:55:13.504Z,12.00
2018-04-08T11:58:15.999Z,11.93
2018-04-08T12:01:18.524Z,14.37
2018-04-08T12:04:21.068Z,13.83
2018-04-08T12:07:23.533Z,13.93
2018-04-08T12:10:26.049Z,14.60
2018-04-08T12:13:28.531Z,15.97
2018-04-08T12:16:31.034Z,14.63
2018-04-08T12:19:33.568Z,17.97
2018-04-08T12:22:36.082Z,16.80
2018-04-08T12:25:38.543Z,12.90
2018-04-08T12:28:41.043Z,15.37
2018-04-08T12:31:43.537Z,11.77
2018-04-08T12:34:46.045Z,14.17
2018-04-08T12:37:48.587Z,11.70
2018-04-08T12:40:51.092Z,14.67
2018-04-08T12:43:53.571Z,14.20
2018-04-08T12:46:56.122Z,12.83
2018-04-08T12:49:58.574Z,13.90
2018-04-08T12:53:01.085Z,17.50
2018-04-08T12:56:03.569Z,14.00
2018-04-08T12:59:06.080Z,12.90
2018-04-08T13:02:08.562Z,13.63
2018-04-08T13:05:11.058Z,19.10
2018-04-08T13:08:13.584Z,14.07
2018-04-08T13:11:16.107Z,18.70
2018-04-08T13:14:19.887Z,14.40
2018-04-08T13:17:22.448Z,18.43
2018-04-08T13:20:24.949Z,15.63
2018-04-08T13:23:27.435Z,12.47
2018-04-08T13:26:29.954Z,15.77
2018-04-08T13:29:32.449Z,16.90
2018-04-08T13:32:35.062Z,15.93
2018-04-08T13:35:37.562Z,14.97
2018-04-08T13:38:40.186Z,14.03
2018-04-08T13:41:42.705Z,20.80
2018-04-08T13:44:45.205Z,14.93
2018-04-08T13:47:47.726Z,22.40
2018-04-08T13:50:50.234Z,17.47
2018-04-08T13:53:52.726Z,16.70
2018-04-08T13:56:55.336Z,18.47
2018-04-08T13:59:57.919Z,15.30
2018-04-08T14:03:00.495Z,16.47
2018-04-08T14:06:03.000Z,15.03
2018-04-08T14:09:06.231Z,15.83
2018-04-08T14:12:08.877Z,11.10
2018-04-08T14:15:11.460Z,28.63
2018-04-08T14:18:14.012Z,17.93
2018-04-08T14:21:16.576Z,17.33
2018-04-08T14:24:19.174Z,18.43
2018-04-08T14:27:21.728Z,16.90
2018-04-08T14:30:24.184Z,21.27
2018-04-08T14:33:26.928Z,16.53
2018-04-08T14:36:29.449Z,18.87
2018-04-08T14:39:32.059Z,13.27
2018-04-08T14:42:34.578Z,18.00
2018-04-08T14:45:37.104Z,13.80
2018-04-08T14:48:39.595Z,13.20
2018-04-08T14:51:42.171Z,17.43
2018-04-08T14:54:44.671Z,21.60
2018-04-08T14:57:47.240Z,12.00
2018-04-08T15:00:49.725Z,18.00
2018-04-08T15:03:52.343Z,18.73
2018-04-08T15:06:54.881Z,14.40
2018-04-08T15:09:57.389Z,15.67
2018-04-08T15:12:59.885Z,22.20
2018-04-08T15:16:02.458Z,15.63
2018-04-08T15:19:04.945Z,19.33
2018-04-08T15:22:07.489Z,20.40
2018-04-08T15:25:10.090Z,16.03
2018-04-08T15:28:12.613Z,20.53
2018-04-08T15:31:15.105Z,22.57
2018-04-08T15:34:17.676Z,19.00
2018-04-08T15:37:20.240Z,27.17
2018-04-08T15:40:22.756Z,23.83
2018-04-08T15:43:25.294Z,22.70
2018-04-08T15:46:27.824Z,26.73
2018-04-08T15:49:30.381Z,24.20
2018-04-08T15:52:32.841Z,30.13
2018-04-08T15:55:35.340Z,26.40
2018-04-08T15:58:37.820Z,29.47
2018-04-08T16:01:40.349Z,26.03
2018-04-08T16:04:42.839Z,26.73
2018-04-08T16:07:45.355Z,28.43
2018-04-08T16:10:47.849Z,27.20
2018-04-08T16:13:50.365Z,26.80
2018-04-08T16:16:52.852Z,28.57
2018-04-08T16:19:55.709Z,29.87
2018-04-08T16:22:58.225Z,23.07
2018-04-08T16:26:00.695Z,26.47
2018-04-08T16:29:03.197Z,27.07
2018-04-08T16:32:05.724Z,23.53
2018-04-08T16:35:08.247Z,27.30
2018-04-08T16:38:10.775Z,25.33
2018-04-08T16:41:13.445Z,30.07
2018-04-08T16:44:17.021Z,27.90
2018-04-08T16:47:19.606Z,29.97
2018-04-08T16:50:22.092Z,25.33
2018-04-08T16:53:24.606Z,26.80
2018-04-08T16:56:27.152Z,26.33
2018-04-08T16:59:29.697Z,24.90
2018-04-08T17:05:41.265Z,30.03
2018-04-08T17:08:43.838Z,27.90
2018-04-08T17:11:46.375Z,32.20
2018-04-08T17:14:48.861Z,28.67
2018-04-08T17:17:51.421Z,31.20
2018-04-08T17:20:54.130Z,29.10
2018-04-08T17:23:56.735Z,27.93
2018-04-08T17:26:59.252Z,30.43
2018-04-08T17:30:01.759Z,32.33
2018-04-08T17:33:04.382Z,26.93
2018-04-08T17:36:06.931Z,26.83
2018-04-08T17:39:09.436Z,30.93
2018-04-08T17:42:11.972Z,31.90
2018-04-08T17:45:14.733Z,32.33
2018-04-08T17:48:17.306Z,33.07
2018-04-08T17:51:19.838Z,31.97
2018-04-08T17:54:22.432Z,32.53
2018-04-08T17:57:24.941Z,31.03
2018-04-08T18:00:27.493Z,34.70
2018-04-08T18:03:29.997Z,32.47
2018-04-08T18:06:32.575Z,37.00
2018-04-08T18:09:35.200Z,28.70
2018-04-08T18:12:37.780Z,31.87
2018-04-08T18:15:41.060Z,26.50
2018-04-08T18:18:43.518Z,29.20
2018-04-08T18:21:46.072Z,30.70
2018-04-08T18:24:48.667Z,32.97
2018-04-08T18:27:51.228Z,30.80
2018-04-08T18:30:53.799Z,27.93
2018-04-08T18:33:56.461Z,31.20
2018-04-08T18:36:58.986Z,31.27
2018-04-08T18:40:01.519Z,32.63
2018-04-08T18:43:04.055Z,35.90
2018-04-08T18:46:06.806Z,35.37
2018-04-08T18:49:09.368Z,33.27
2018-04-08T18:52:11.843Z,37.70
2018-04-08T18:55:14.366Z,33.87
2018-04-08T18:58:16.914Z,33.80
2018-04-08T19:01:19.744Z,33.20
2018-04-08T19:04:22.369Z,32.30
2018-04-08T19:07:24.879Z,32.17
2018-04-08T19:10:28.214Z,30.00
2018-04-08T19:13:30.743Z,29.47
2018-04-08T19:16:33.277Z,35.37
2018-04-08T19:19:36.622Z,34.60
2018-04-08T19:22:39.183Z,36.67
2018-04-08T19:25:41.741Z,33.30
2018-04-08T19:28:44.323Z,32.73
2018-04-08T19:31:47.454Z,35.43
2018-04-08T19:34:49.988Z,38.43
2018-04-08T19:37:52.539Z,34.57
2018-04-08T19:40:55.051Z,35.70
2018-04-08T19:43:57.598Z,38.13
2018-04-08T19:47:00.063Z,38.20
2018-04-08T19:50:02.653Z,37.57
2018-04-08T19:53:05.853Z,37.30
2018-04-08T19:56:08.361Z,38.90
2018-04-08T19:59:10.959Z,41.33
2018-04-08T20:02:14.718Z,43.27
2018-04-08T20:05:17.333Z,43.30
2018-04-08T20:08:19.915Z,38.90
2018-04-08T20:11:22.572Z,44.00
2018-04-08T20:14:25.160Z,37.23
2018-04-08T20:17:27.610Z,41.97
2018-04-08T20:20:30.248Z,44.03
2018-04-08T20:23:32.744Z,43.00
2018-04-08T20:26:35.305Z,47.50
2018-04-08T20:29:37.793Z,47.33
2018-04-08T20:32:40.398Z,40.30
2018-04-08T20:35:42.964Z,43.53
2018-04-08T20:38:45.533Z,44.60
2018-04-08T20:41:48.039Z,42.73
2018-04-08T20:44:52.004Z,38.90
2018-04-08T20:47:54.658Z,41.80
2018-04-08T20:50:57.203Z,45.80
2018-04-08T20:53:59.759Z,40.93
2018-04-08T20:57:02.334Z,39.93
2018-04-08T21:00:04.899Z,40.87
2018-04-08T21:03:07.458Z,42.27
2018-04-08T21:06:09.995Z,40.00
2018-04-08T21:09:12.569Z,35.37
2018-04-08T21:12:15.150Z,39.63
2018-04-08T21:15:17.680Z,35.60
2018-04-08T21:18:20.228Z,36.40
2018-04-08T21:21:22.755Z,39.73
2018-04-08T21:24:25.299Z,36.00
2018-04-08T21:27:27.774Z,35.67
2018-04-08T21:30:30.281Z,36.37
2018-04-08T21:33:32.839Z,36.23
2018-04-08T21:36:35.380Z,32.30
2018-04-08T21:39:37.894Z,35.60
2018-04-08T21:42:40.460Z,37.90
2018-04-08T21:45:43.029Z,37.27
2018-04-08T21:48:45.509Z,32.20
2018-04-08T21:51:48.005Z,32.03
2018-04-08T21:54:50.504Z,33.43
2018-04-08T21:57:52.979Z,34.10
2018-04-08T22:00:55.486Z,33.07
2018-04-08T22:03:58.062Z,32.10
2018-04-08T22:07:00.511Z,31.53
2018-04-08T22:10:03.133Z,34.17
2018-04-08T22:13:05.617Z,30.33
2018-04-08T22:16:08.104Z,35.80
2018-04-08T22:19:10.594Z,37.43
2018-04-08T22:22:13.124Z,34.13
2018-04-08T22:25:15.620Z,27.43
2018-04-08T22:28:19.207Z,30.20
2018-04-08T22:31:21.737Z,35.93
2018-04-08T22:34:24.235Z,32.17
2018-04-08T22:37:26.755Z,31.10
2018-04-08T22:40:30.211Z,30.33
2018-04-08T22:43:32.716Z,29.53
2018-04-08T22:46:35.222Z,31.20
2018-04-08T22:49:37.686Z,29.00
2018-04-08T22:52:40.210Z,31.07
2018-04-08T22:55:43.096Z,31.43
2018-04-08T22:58:45.599Z,29.77
2018-04-08T23:01:48.081Z,32.97
2018-04-08T23:04:50.602Z,30.97
2018-04-08T23:07:53.081Z,28.80
2018-04-08T23:10:55.559Z,31.57
2018-04-08T23:13:58.011Z,34.17
2018-04-08T23:17:00.751Z,30.80
2018-04-08T23:20:03.222Z,33.37
2018-04-08T23:23:05.760Z,28.07
2018-04-08T23:26:08.316Z,34.63
2018-04-08T23:29:10.831Z,30.83
2018-04-08T23:32:13.345Z,27.60
2018-04-08T23:35:15.860Z,29.83
2018-04-08T23:38:18.364Z,32.60
2018-04-08T23:41:20.946Z,27.27
2018-04-08T23:44:23.454Z,34.07
2018-04-08T23:47:25.991Z,29.00
2018-04-08T23:50:28.617Z,28.20
2018-04-08T23:53:31.205Z,28.00
2018-04-08T23:56:33.716Z,29.27
2018-04-08T23:59:36.290Z,29.33
